Slocomb, Alabama
Current Conditions -  °F | °C
As of 8:19 PM on Friday 19 Dec 2014 (Local Time) from KOZR Reporting Station
Light Rain Light Rain  
Wind Chill: 48°   Ceiling: 2800
Heat Index: 48°   Visibility: 7mi
Dew Point: 45°   Wind: 2mph
Humidity: 87%   Direction: 320°NW
Pressure: 30.15"   Gusts: NA
Location:  31.11°N, 85.59°W
Report Text: KOZR 200219Z AUTO 32002KT 7SM -RA BKN028 BKN035 OVC060 09/07 A3015 RMK AO2 RAB0209DZB0156E0202 CIG 028V060 BKN028 V SCT
Loading
Personal Weather Stations






























Interactive Weather Map New forecast layout! Learn more

10-Day Weather Forecast

Advertisements
Track Severe Weather on mobile